sensor_id;sensor_type;location;lat;lon;timestamp;P1;durP1;ratioP1;P2;durP2;ratioP2
47713;SDS011;33475;46.614;13.888;2022-10-15T00:01:54;29.98;;;15.15;;
47713;SDS011;33475;46.614;13.888;2022-10-15T00:04:20;26.98;;;15.63;;
47713;SDS011;33475;46.614;13.888;2022-10-15T00:06:46;27.00;;;16.70;;
47713;SDS011;33475;46.614;13.888;2022-10-15T00:09:12;23.20;;;15.15;;
47713;SDS011;33475;46.614;13.888;2022-10-15T00:11:38;31.80;;;17.25;;
47713;SDS011;33475;46.614;13.888;2022-10-15T00:14:04;21.77;;;16.00;;
47713;SDS011;33475;46.614;13.888;2022-10-15T00:16:31;20.85;;;15.25;;
47713;SDS011;33475;46.614;13.888;2022-10-15T00:18:58;25.13;;;16.30;;
47713;SDS011;33475;46.614;13.888;2022-10-15T00:21:24;22.77;;;16.55;;
47713;SDS011;33475;46.614;13.888;2022-10-15T00:23:51;25.98;;;16.63;;
47713;SDS011;33475;46.614;13.888;2022-10-15T00:26:19;23.77;;;16.05;;
47713;SDS011;33475;46.614;13.888;2022-10-15T00:28:47;30.98;;;16.75;;
47713;SDS011;33475;46.614;13.888;2022-10-15T00:31:14;28.30;;;17.45;;
47713;SDS011;33475;46.614;13.888;2022-10-15T00:33:40;23.10;;;15.88;;
47713;SDS011;33475;46.614;13.888;2022-10-15T00:36:08;30.45;;;16.02;;
47713;SDS011;33475;46.614;13.888;2022-10-15T00:38:35;25.02;;;15.70;;
47713;SDS011;33475;46.614;13.888;2022-10-15T00:41:02;28.88;;;16.75;;
47713;SDS011;33475;46.614;13.888;2022-10-15T00:46:04;30.48;;;16.88;;
47713;SDS011;33475;46.614;13.888;2022-10-15T00:48:30;22.45;;;16.88;;
47713;SDS011;33475;46.614;13.888;2022-10-15T00:50:57;23.70;;;15.75;;
47713;SDS011;33475;46.614;13.888;2022-10-15T00:53:27;23.73;;;15.55;;
47713;SDS011;33475;46.614;13.888;2022-10-15T00:55:53;26.67;;;15.68;;
47713;SDS011;33475;46.614;13.888;2022-10-15T00:58:19;23.27;;;16.88;;
47713;SDS011;33475;46.614;13.888;2022-10-15T01:00:52;26.23;;;16.85;;
47713;SDS011;33475;46.614;13.888;2022-10-15T01:03:19;27.98;;;17.73;;
47713;SDS011;33475;46.614;13.888;2022-10-15T01:05:46;24.40;;;16.38;;
47713;SDS011;33475;46.614;13.888;2022-10-15T01:08:13;25.08;;;15.90;;
47713;SDS011;33475;46.614;13.888;2022-10-15T01:10:43;18.45;;;15.15;;
47713;SDS011;33475;46.614;13.888;2022-10-15T01:15:55;28.80;;;16.17;;
47713;SDS011;33475;46.614;13.888;2022-10-15T01:18:24;24.00;;;16.83;;
47713;SDS011;33475;46.614;13.888;2022-10-15T01:20:56;20.90;;;15.70;;
47713;SDS011;33475;46.614;13.888;2022-10-15T01:31:53;24.85;;;17.52;;
47713;SDS011;33475;46.614;13.888;2022-10-15T01:34:15;24.83;;;16.90;;
47713;SDS011;33475;46.614;13.888;2022-10-15T01:39:20;30.67;;;16.33;;
47713;SDS011;33475;46.614;13.888;2022-10-15T01:41:55;29.30;;;17.88;;
47713;SDS011;33475;46.614;13.888;2022-10-15T01:44:33;31.33;;;18.50;;
47713;SDS011;33475;46.614;13.888;2022-10-15T01:47:01;29.98;;;18.88;;
47713;SDS011;33475;46.614;13.888;2022-10-15T01:49:33;35.30;;;18.13;;
47713;SDS011;33475;46.614;13.888;2022-10-15T01:52:01;33.25;;;19.92;;
47713;SDS011;33475;46.614;13.888;2022-10-15T01:54:28;30.92;;;19.42;;
47713;SDS011;33475;46.614;13.888;2022-10-15T01:56:55;29.10;;;17.88;;
47713;SDS011;33475;46.614;13.888;2022-10-15T01:59:22;28.15;;;18.42;;
47713;SDS011;33475;46.614;13.888;2022-10-15T02:01:49;28.15;;;16.63;;
47713;SDS011;33475;46.614;13.888;2022-10-15T02:04:23;24.80;;;18.00;;
47713;SDS011;33475;46.614;13.888;2022-10-15T02:06:52;29.40;;;18.13;;
47713;SDS011;33475;46.614;13.888;2022-10-15T02:11:52;31.63;;;17.67;;
47713;SDS011;33475;46.614;13.888;2022-10-15T02:14:26;26.60;;;17.05;;
47713;SDS011;33475;46.614;13.888;2022-10-15T02:17:09;27.27;;;17.85;;
47713;SDS011;33475;46.614;13.888;2022-10-15T02:22:11;29.20;;;19.05;;
47713;SDS011;33475;46.614;13.888;2022-10-15T02:27:14;27.45;;;18.20;;
47713;SDS011;33475;46.614;13.888;2022-10-15T02:29:41;26.85;;;18.65;;
47713;SDS011;33475;46.614;13.888;2022-10-15T02:32:09;28.25;;;18.73;;
47713;SDS011;33475;46.614;13.888;2022-10-15T02:34:37;26.40;;;17.38;;
47713;SDS011;33475;46.614;13.888;2022-10-15T02:37:04;23.80;;;17.42;;
47713;SDS011;33475;46.614;13.888;2022-10-15T02:39:30;31.48;;;19.65;;
47713;SDS011;33475;46.614;13.888;2022-10-15T02:41:57;33.15;;;18.45;;
47713;SDS011;33475;46.614;13.888;2022-10-15T02:44:23;27.98;;;17.75;;
47713;SDS011;33475;46.614;13.888;2022-10-15T02:46:49;27.48;;;18.25;;
47713;SDS011;33475;46.614;13.888;2022-10-15T02:49:15;28.92;;;18.05;;
47713;SDS011;33475;46.614;13.888;2022-10-15T02:51:41;29.88;;;18.85;;
47713;SDS011;33475;46.614;13.888;2022-10-15T02:54:08;29.10;;;17.58;;
47713;SDS011;33475;46.614;13.888;2022-10-15T02:56:34;37.08;;;19.05;;
47713;SDS011;33475;46.614;13.888;2022-10-15T02:59:03;35.38;;;18.85;;
47713;SDS011;33475;46.614;13.888;2022-10-15T03:01:30;31.20;;;18.88;;
47713;SDS011;33475;46.614;13.888;2022-10-15T03:03:57;30.85;;;18.02;;
47713;SDS011;33475;46.614;13.888;2022-10-15T03:06:24;28.00;;;17.33;;
47713;SDS011;33475;46.614;13.888;2022-10-15T03:08:50;26.33;;;18.25;;
47713;SDS011;33475;46.614;13.888;2022-10-15T03:11:16;25.27;;;17.80;;
47713;SDS011;33475;46.614;13.888;2022-10-15T03:13:42;27.90;;;18.15;;
47713;SDS011;33475;46.614;13.888;2022-10-15T03:16:09;36.05;;;18.95;;
47713;SDS011;33475;46.614;13.888;2022-10-15T03:18:36;28.00;;;17.73;;
47713;SDS011;33475;46.614;13.888;2022-10-15T03:21:02;25.25;;;17.00;;
47713;SDS011;33475;46.614;13.888;2022-10-15T03:23:30;28.45;;;16.67;;
47713;SDS011;33475;46.614;13.888;2022-10-15T03:25:56;21.98;;;17.70;;
47713;SDS011;33475;46.614;13.888;2022-10-15T03:28:22;32.08;;;17.63;;
47713;SDS011;33475;46.614;13.888;2022-10-15T03:30:48;40.00;;;18.17;;
47713;SDS011;33475;46.614;13.888;2022-10-15T03:33:14;27.48;;;17.17;;
47713;SDS011;33475;46.614;13.888;2022-10-15T03:35:41;26.25;;;17.75;;
47713;SDS011;33475;46.614;13.888;2022-10-15T03:38:07;26.40;;;17.65;;
47713;SDS011;33475;46.614;13.888;2022-10-15T03:40:33;31.52;;;18.08;;
47713;SDS011;33475;46.614;13.888;2022-10-15T03:42:59;27.83;;;17.77;;
47713;SDS011;33475;46.614;13.888;2022-10-15T03:45:25;28.48;;;18.85;;
47713;SDS011;33475;46.614;13.888;2022-10-15T03:47:52;25.25;;;17.02;;
47713;SDS011;33475;46.614;13.888;2022-10-15T03:50:18;23.35;;;17.00;;
47713;SDS011;33475;46.614;13.888;2022-10-15T03:52:44;24.80;;;16.42;;
47713;SDS011;33475;46.614;13.888;2022-10-15T03:55:10;29.92;;;18.13;;
47713;SDS011;33475;46.614;13.888;2022-10-15T03:57:36;31.25;;;17.55;;
47713;SDS011;33475;46.614;13.888;2022-10-15T04:00:04;24.90;;;16.70;;
47713;SDS011;33475;46.614;13.888;2022-10-15T04:02:31;26.27;;;18.20;;
47713;SDS011;33475;46.614;13.888;2022-10-15T04:04:57;22.42;;;17.63;;
47713;SDS011;33475;46.614;13.888;2022-10-15T04:07:23;28.10;;;18.27;;
47713;SDS011;33475;46.614;13.888;2022-10-15T04:09:50;24.50;;;18.38;;
47713;SDS011;33475;46.614;13.888;2022-10-15T04:12:16;30.88;;;18.35;;
47713;SDS011;33475;46.614;13.888;2022-10-15T04:14:42;34.40;;;19.20;;
47713;SDS011;33475;46.614;13.888;2022-10-15T04:17:08;31.42;;;19.05;;
47713;SDS011;33475;46.614;13.888;2022-10-15T04:19:34;29.05;;;18.48;;
47713;SDS011;33475;46.614;13.888;2022-10-15T04:22:01;34.42;;;19.80;;
47713;SDS011;33475;46.614;13.888;2022-10-15T04:24:27;27.23;;;18.38;;
47713;SDS011;33475;46.614;13.888;2022-10-15T04:26:53;27.83;;;18.45;;
47713;SDS011;33475;46.614;13.888;2022-10-15T04:29:19;25.75;;;18.52;;
47713;SDS011;33475;46.614;13.888;2022-10-15T04:31:45;27.38;;;18.80;;
47713;SDS011;33475;46.614;13.888;2022-10-15T04:34:11;30.05;;;18.95;;
47713;SDS011;33475;46.614;13.888;2022-10-15T04:36:37;29.60;;;18.30;;
47713;SDS011;33475;46.614;13.888;2022-10-15T04:39:04;27.10;;;19.50;;
47713;SDS011;33475;46.614;13.888;2022-10-15T04:41:30;27.98;;;18.48;;
47713;SDS011;33475;46.614;13.888;2022-10-15T04:43:57;24.80;;;17.77;;
47713;SDS011;33475;46.614;13.888;2022-10-15T04:46:23;29.15;;;18.00;;
47713;SDS011;33475;46.614;13.888;2022-10-15T04:48:51;24.42;;;18.65;;
47713;SDS011;33475;46.614;13.888;2022-10-15T04:51:22;59.47;;;17.95;;
47713;SDS011;33475;46.614;13.888;2022-10-15T04:53:48;26.75;;;18.27;;
47713;SDS011;33475;46.614;13.888;2022-10-15T04:56:15;25.70;;;17.25;;
47713;SDS011;33475;46.614;13.888;2022-10-15T04:58:43;24.80;;;17.80;;
47713;SDS011;33475;46.614;13.888;2022-10-15T05:01:10;27.52;;;18.55;;
47713;SDS011;33475;46.614;13.888;2022-10-15T05:03:37;23.50;;;17.45;;
47713;SDS011;33475;46.614;13.888;2022-10-15T05:06:08;24.20;;;17.00;;
47713;SDS011;33475;46.614;13.888;2022-10-15T05:08:34;28.52;;;18.27;;
47713;SDS011;33475;46.614;13.888;2022-10-15T05:11:02;25.13;;;17.38;;
47713;SDS011;33475;46.614;13.888;2022-10-15T05:13:29;27.35;;;17.92;;
47713;SDS011;33475;46.614;13.888;2022-10-15T05:15:55;28.10;;;18.42;;
47713;SDS011;33475;46.614;13.888;2022-10-15T05:18:21;25.08;;;18.05;;
47713;SDS011;33475;46.614;13.888;2022-10-15T05:20:48;31.20;;;17.48;;
47713;SDS011;33475;46.614;13.888;2022-10-15T05:23:14;28.58;;;18.40;;
47713;SDS011;33475;46.614;13.888;2022-10-15T05:25:40;29.35;;;19.63;;
47713;SDS011;33475;46.614;13.888;2022-10-15T05:28:06;24.70;;;17.17;;
47713;SDS011;33475;46.614;13.888;2022-10-15T05:30:33;28.63;;;18.45;;
47713;SDS011;33475;46.614;13.888;2022-10-15T05:33:00;24.73;;;18.10;;
47713;SDS011;33475;46.614;13.888;2022-10-15T05:35:26;30.25;;;19.13;;
47713;SDS011;33475;46.614;13.888;2022-10-15T05:37:52;28.90;;;19.05;;
47713;SDS011;33475;46.614;13.888;2022-10-15T05:40:18;29.02;;;18.52;;
47713;SDS011;33475;46.614;13.888;2022-10-15T05:42:48;25.58;;;18.73;;
47713;SDS011;33475;46.614;13.888;2022-10-15T05:45:15;29.63;;;18.52;;
47713;SDS011;33475;46.614;13.888;2022-10-15T05:47:41;25.65;;;17.80;;
47713;SDS011;33475;46.614;13.888;2022-10-15T05:50:07;25.38;;;19.00;;
47713;SDS011;33475;46.614;13.888;2022-10-15T05:52:33;24.50;;;18.80;;
47713;SDS011;33475;46.614;13.888;2022-10-15T05:55:00;30.80;;;19.67;;
47713;SDS011;33475;46.614;13.888;2022-10-15T05:57:26;24.00;;;17.95;;
47713;SDS011;33475;46.614;13.888;2022-10-15T05:59:52;27.23;;;17.50;;
47713;SDS011;33475;46.614;13.888;2022-10-15T06:02:18;34.28;;;18.63;;
47713;SDS011;33475;46.614;13.888;2022-10-15T06:04:45;30.30;;;19.75;;
47713;SDS011;33475;46.614;13.888;2022-10-15T06:07:12;29.30;;;19.17;;
47713;SDS011;33475;46.614;13.888;2022-10-15T06:09:39;30.52;;;20.38;;
47713;SDS011;33475;46.614;13.888;2022-10-15T06:12:06;31.98;;;21.70;;
47713;SDS011;33475;46.614;13.888;2022-10-15T06:14:32;30.48;;;19.63;;
47713;SDS011;33475;46.614;13.888;2022-10-15T06:16:58;34.17;;;20.40;;
47713;SDS011;33475;46.614;13.888;2022-10-15T06:19:24;32.05;;;19.48;;
47713;SDS011;33475;46.614;13.888;2022-10-15T06:21:50;27.73;;;19.05;;
47713;SDS011;33475;46.614;13.888;2022-10-15T06:24:16;24.75;;;18.08;;
47713;SDS011;33475;46.614;13.888;2022-10-15T06:26:43;27.23;;;18.98;;
47713;SDS011;33475;46.614;13.888;2022-10-15T06:29:09;31.42;;;19.15;;
47713;SDS011;33475;46.614;13.888;2022-10-15T06:31:35;30.50;;;20.98;;
47713;SDS011;33475;46.614;13.888;2022-10-15T06:34:01;27.13;;;20.20;;
47713;SDS011;33475;46.614;13.888;2022-10-15T06:36:27;29.60;;;20.40;;
47713;SDS011;33475;46.614;13.888;2022-10-15T06:38:53;36.13;;;21.17;;
47713;SDS011;33475;46.614;13.888;2022-10-15T06:41:19;27.50;;;19.83;;
47713;SDS011;33475;46.614;13.888;2022-10-15T06:43:47;37.42;;;22.88;;
47713;SDS011;33475;46.614;13.888;2022-10-15T06:46:14;32.15;;;20.88;;
47713;SDS011;33475;46.614;13.888;2022-10-15T06:48:40;34.35;;;22.42;;
47713;SDS011;33475;46.614;13.888;2022-10-15T06:51:06;32.50;;;21.95;;
47713;SDS011;33475;46.614;13.888;2022-10-15T06:53:32;33.15;;;22.20;;
47713;SDS011;33475;46.614;13.888;2022-10-15T06:56:02;34.42;;;21.85;;
47713;SDS011;33475;46.614;13.888;2022-10-15T06:58:28;29.17;;;17.88;;
47713;SDS011;33475;46.614;13.888;2022-10-15T07:01:04;28.92;;;19.38;;
47713;SDS011;33475;46.614;13.888;2022-10-15T07:03:30;33.22;;;18.98;;
47713;SDS011;33475;46.614;13.888;2022-10-15T07:06:03;28.40;;;18.83;;
47713;SDS011;33475;46.614;13.888;2022-10-15T07:08:30;29.60;;;19.45;;
47713;SDS011;33475;46.614;13.888;2022-10-15T07:10:56;27.88;;;19.00;;
47713;SDS011;33475;46.614;13.888;2022-10-15T07:13:22;29.60;;;20.30;;
47713;SDS011;33475;46.614;13.888;2022-10-15T07:15:48;35.42;;;21.08;;
47713;SDS011;33475;46.614;13.888;2022-10-15T07:18:18;27.30;;;19.27;;
47713;SDS011;33475;46.614;13.888;2022-10-15T07:20:44;31.52;;;19.35;;
47713;SDS011;33475;46.614;13.888;2022-10-15T07:23:11;32.08;;;21.73;;
47713;SDS011;33475;46.614;13.888;2022-10-15T07:25:37;37.88;;;28.20;;
47713;SDS011;33475;46.614;13.888;2022-10-15T07:28:03;30.70;;;22.60;;
47713;SDS011;33475;46.614;13.888;2022-10-15T07:30:30;30.45;;;24.38;;
47713;SDS011;33475;46.614;13.888;2022-10-15T07:32:57;33.28;;;22.25;;
47713;SDS011;33475;46.614;13.888;2022-10-15T07:35:24;43.33;;;33.00;;
47713;SDS011;33475;46.614;13.888;2022-10-15T07:37:51;34.75;;;26.77;;
47713;SDS011;33475;46.614;13.888;2022-10-15T07:40:17;28.42;;;22.52;;
47713;SDS011;33475;46.614;13.888;2022-10-15T07:42:43;36.03;;;22.60;;
47713;SDS011;33475;46.614;13.888;2022-10-15T07:45:09;31.20;;;21.70;;
47713;SDS011;33475;46.614;13.888;2022-10-15T07:47:38;27.77;;;19.40;;
47713;SDS011;33475;46.614;13.888;2022-10-15T07:50:04;28.70;;;20.27;;
47713;SDS011;33475;46.614;13.888;2022-10-15T07:52:30;28.85;;;20.67;;
47713;SDS011;33475;46.614;13.888;2022-10-15T07:54:56;30.05;;;19.52;;
47713;SDS011;33475;46.614;13.888;2022-10-15T07:57:23;28.35;;;20.70;;
47713;SDS011;33475;46.614;13.888;2022-10-15T07:59:49;27.73;;;19.13;;
47713;SDS011;33475;46.614;13.888;2022-10-15T08:02:16;32.90;;;20.17;;
47713;SDS011;33475;46.614;13.888;2022-10-15T08:04:42;24.10;;;19.15;;
47713;SDS011;33475;46.614;13.888;2022-10-15T08:07:09;26.60;;;19.13;;
47713;SDS011;33475;46.614;13.888;2022-10-15T08:09:35;23.98;;;18.33;;
47713;SDS011;33475;46.614;13.888;2022-10-15T08:12:01;29.35;;;18.75;;
47713;SDS011;33475;46.614;13.888;2022-10-15T08:14:27;21.70;;;18.75;;
47713;SDS011;33475;46.614;13.888;2022-10-15T08:16:53;23.80;;;18.00;;
47713;SDS011;33475;46.614;13.888;2022-10-15T08:19:19;23.73;;;18.13;;
47713;SDS011;33475;46.614;13.888;2022-10-15T08:21:45;20.05;;;17.60;;
47713;SDS011;33475;46.614;13.888;2022-10-15T08:24:11;22.38;;;17.55;;
47713;SDS011;33475;46.614;13.888;2022-10-15T08:26:38;25.25;;;17.23;;
47713;SDS011;33475;46.614;13.888;2022-10-15T08:29:04;25.73;;;18.08;;
47713;SDS011;33475;46.614;13.888;2022-10-15T08:31:30;23.52;;;17.65;;
47713;SDS011;33475;46.614;13.888;2022-10-15T08:34:00;24.90;;;18.85;;
47713;SDS011;33475;46.614;13.888;2022-10-15T08:36:26;22.50;;;17.17;;
47713;SDS011;33475;46.614;13.888;2022-10-15T08:38:52;24.52;;;17.90;;
47713;SDS011;33475;46.614;13.888;2022-10-15T08:43:45;23.58;;;18.02;;
47713;SDS011;33475;46.614;13.888;2022-10-15T08:46:17;23.50;;;17.63;;
47713;SDS011;33475;46.614;13.888;2022-10-15T08:48:45;19.80;;;17.48;;
47713;SDS011;33475;46.614;13.888;2022-10-15T08:51:13;25.65;;;17.27;;
47713;SDS011;33475;46.614;13.888;2022-10-15T08:53:41;25.33;;;17.90;;
47713;SDS011;33475;46.614;13.888;2022-10-15T08:56:29;24.63;;;17.02;;
47713;SDS011;33475;46.614;13.888;2022-10-15T08:58:59;23.50;;;17.30;;
47713;SDS011;33475;46.614;13.888;2022-10-15T09:01:30;21.90;;;17.45;;
47713;SDS011;33475;46.614;13.888;2022-10-15T09:06:24;23.15;;;18.02;;
47713;SDS011;33475;46.614;13.888;2022-10-15T09:09:06;19.58;;;17.58;;
47713;SDS011;33475;46.614;13.888;2022-10-15T09:14:02;24.73;;;18.70;;
47713;SDS011;33475;46.614;13.888;2022-10-15T09:16:31;19.70;;;17.65;;
47713;SDS011;33475;46.614;13.888;2022-10-15T09:18:59;18.77;;;16.63;;
47713;SDS011;33475;46.614;13.888;2022-10-15T09:21:27;20.42;;;17.08;;
47713;SDS011;33475;46.614;13.888;2022-10-15T09:24:00;22.33;;;16.52;;
47713;SDS011;33475;46.614;13.888;2022-10-15T09:26:26;20.20;;;16.52;;
47713;SDS011;33475;46.614;13.888;2022-10-15T09:31:36;19.17;;;17.20;;
47713;SDS011;33475;46.614;13.888;2022-10-15T09:34:06;16.67;;;15.02;;
47713;SDS011;33475;46.614;13.888;2022-10-15T09:44:20;22.75;;;16.88;;
47713;SDS011;33475;46.614;13.888;2022-10-15T09:46:48;18.42;;;16.42;;
47713;SDS011;33475;46.614;13.888;2022-10-15T09:49:15;19.25;;;15.77;;
47713;SDS011;33475;46.614;13.888;2022-10-15T09:54:58;18.20;;;16.30;;
47713;SDS011;33475;46.614;13.888;2022-10-15T09:57:05;20.55;;;16.02;;
47713;SDS011;33475;46.614;13.888;2022-10-15T09:59:33;18.55;;;15.90;;
47713;SDS011;33475;46.614;13.888;2022-10-15T10:02:01;22.08;;;16.20;;
47713;SDS011;33475;46.614;13.888;2022-10-15T10:04:28;19.45;;;15.50;;
47713;SDS011;33475;46.614;13.888;2022-10-15T10:06:56;19.20;;;15.57;;
47713;SDS011;33475;46.614;13.888;2022-10-15T10:09:24;18.25;;;16.33;;
47713;SDS011;33475;46.614;13.888;2022-10-15T10:11:52;20.67;;;17.25;;
47713;SDS011;33475;46.614;13.888;2022-10-15T10:17:13;21.15;;;16.10;;
47713;SDS011;33475;46.614;13.888;2022-10-15T10:19:40;17.67;;;15.82;;
47713;SDS011;33475;46.614;13.888;2022-10-15T10:22:17;18.63;;;15.30;;
47713;SDS011;33475;46.614;13.888;2022-10-15T10:24:45;19.65;;;15.50;;
47713;SDS011;33475;46.614;13.888;2022-10-15T10:27:18;21.10;;;15.88;;
47713;SDS011;33475;46.614;13.888;2022-10-15T10:29:52;20.42;;;16.17;;
47713;SDS011;33475;46.614;13.888;2022-10-15T10:34:45;27.98;;;16.75;;
47713;SDS011;33475;46.614;13.888;2022-10-15T10:37:12;21.15;;;17.13;;
47713;SDS011;33475;46.614;13.888;2022-10-15T10:39:38;19.73;;;17.05;;
47713;SDS011;33475;46.614;13.888;2022-10-15T10:42:05;20.63;;;15.77;;
47713;SDS011;33475;46.614;13.888;2022-10-15T10:44:37;18.52;;;16.42;;
47713;SDS011;33475;46.614;13.888;2022-10-15T10:47:10;17.83;;;16.00;;
47713;SDS011;33475;46.614;13.888;2022-10-15T10:49:41;18.20;;;16.45;;
47713;SDS011;33475;46.614;13.888;2022-10-15T10:52:21;17.83;;;16.02;;
47713;SDS011;33475;46.614;13.888;2022-10-15T10:54:49;19.15;;;16.95;;
47713;SDS011;33475;46.614;13.888;2022-10-15T10:57:18;18.10;;;15.90;;
47713;SDS011;33475;46.614;13.888;2022-10-15T10:59:49;26.17;;;17.30;;
47713;SDS011;33475;46.614;13.888;2022-10-15T11:02:16;21.65;;;16.50;;
47713;SDS011;33475;46.614;13.888;2022-10-15T11:04:42;17.75;;;15.45;;
47713;SDS011;33475;46.614;13.888;2022-10-15T11:17:22;21.58;;;14.40;;
47713;SDS011;33475;46.614;13.888;2022-10-15T11:20:02;16.05;;;14.45;;
47713;SDS011;33475;46.614;13.888;2022-10-15T11:22:35;16.83;;;15.07;;
47713;SDS011;33475;46.614;13.888;2022-10-15T11:25:16;15.80;;;14.18;;
47713;SDS011;33475;46.614;13.888;2022-10-15T11:27:50;15.95;;;14.27;;
47713;SDS011;33475;46.614;13.888;2022-10-15T11:32:57;19.02;;;14.40;;
47713;SDS011;33475;46.614;13.888;2022-10-15T11:38:17;16.73;;;14.48;;
47713;SDS011;33475;46.614;13.888;2022-10-15T11:45:49;15.35;;;13.75;;
47713;SDS011;33475;46.614;13.888;2022-10-15T11:48:24;16.00;;;13.38;;
47713;SDS011;33475;46.614;13.888;2022-10-15T11:55:59;15.35;;;13.82;;
47713;SDS011;33475;46.614;13.888;2022-10-15T11:58:28;14.88;;;13.35;;
47713;SDS011;33475;46.614;13.888;2022-10-15T12:00:57;16.50;;;14.75;;
47713;SDS011;33475;46.614;13.888;2022-10-15T12:03:25;17.05;;;13.13;;
47713;SDS011;33475;46.614;13.888;2022-10-15T12:05:53;18.25;;;13.80;;
47713;SDS011;33475;46.614;13.888;2022-10-15T12:08:20;22.13;;;14.32;;
47713;SDS011;33475;46.614;13.888;2022-10-15T12:16:07;14.85;;;13.35;;
47713;SDS011;33475;46.614;13.888;2022-10-15T12:18:46;24.52;;;15.00;;
47713;SDS011;33475;46.614;13.888;2022-10-15T12:24:00;22.20;;;13.77;;
47713;SDS011;33475;46.614;13.888;2022-10-15T12:26:28;17.33;;;13.25;;
47713;SDS011;33475;46.614;13.888;2022-10-15T12:28:57;15.70;;;14.10;;
47713;SDS011;33475;46.614;13.888;2022-10-15T12:31:23;19.27;;;13.73;;
47713;SDS011;33475;46.614;13.888;2022-10-15T12:38:59;17.98;;;13.77;;
47713;SDS011;33475;46.614;13.888;2022-10-15T12:44:06;17.42;;;15.13;;
47713;SDS011;33475;46.614;13.888;2022-10-15T12:46:36;21.35;;;15.23;;
47713;SDS011;33475;46.614;13.888;2022-10-15T12:51:48;17.83;;;13.82;;
47713;SDS011;33475;46.614;13.888;2022-10-15T12:56:59;13.30;;;11.98;;
47713;SDS011;33475;46.614;13.888;2022-10-15T12:59:30;12.70;;;11.50;;
47713;SDS011;33475;46.614;13.888;2022-10-15T13:02:36;15.02;;;12.45;;
47713;SDS011;33475;46.614;13.888;2022-10-15T13:05:02;12.85;;;11.65;;
47713;SDS011;33475;46.614;13.888;2022-10-15T13:07:29;18.30;;;12.52;;
47713;SDS011;33475;46.614;13.888;2022-10-15T13:09:56;17.95;;;13.20;;
47713;SDS011;33475;46.614;13.888;2022-10-15T13:12:24;14.15;;;12.75;;
47713;SDS011;33475;46.614;13.888;2022-10-15T13:14:54;14.15;;;12.32;;
47713;SDS011;33475;46.614;13.888;2022-10-15T13:17:21;14.05;;;12.68;;
47713;SDS011;33475;46.614;13.888;2022-10-15T13:20:04;14.60;;;12.88;;
47713;SDS011;33475;46.614;13.888;2022-10-15T13:22:33;14.68;;;13.18;;
47713;SDS011;33475;46.614;13.888;2022-10-15T13:24:59;15.27;;;13.15;;
47713;SDS011;33475;46.614;13.888;2022-10-15T13:27:28;15.77;;;13.43;;
47713;SDS011;33475;46.614;13.888;2022-10-15T13:32:20;14.23;;;12.70;;
47713;SDS011;33475;46.614;13.888;2022-10-15T13:34:47;16.05;;;14.20;;
47713;SDS011;33475;46.614;13.888;2022-10-15T13:37:16;15.80;;;14.32;;
47713;SDS011;33475;46.614;13.888;2022-10-15T13:39:42;17.05;;;13.88;;
47713;SDS011;33475;46.614;13.888;2022-10-15T13:42:13;20.13;;;15.82;;
47713;SDS011;33475;46.614;13.888;2022-10-15T13:44:41;17.05;;;15.23;;
47713;SDS011;33475;46.614;13.888;2022-10-15T13:47:29;17.73;;;15.75;;
47713;SDS011;33475;46.614;13.888;2022-10-15T13:55:35;22.98;;;16.40;;
47713;SDS011;33475;46.614;13.888;2022-10-15T13:58:46;17.88;;;15.65;;
47713;SDS011;33475;46.614;13.888;2022-10-15T14:01:01;18.63;;;14.65;;
47713;SDS011;33475;46.614;13.888;2022-10-15T14:03:31;21.92;;;16.67;;
47713;SDS011;33475;46.614;13.888;2022-10-15T14:06:06;21.42;;;16.50;;
47713;SDS011;33475;46.614;13.888;2022-10-15T14:08:34;18.20;;;16.27;;
47713;SDS011;33475;46.614;13.888;2022-10-15T14:11:00;22.23;;;16.88;;
47713;SDS011;33475;46.614;13.888;2022-10-15T14:13:26;17.70;;;15.90;;
47713;SDS011;33475;46.614;13.888;2022-10-15T14:18:26;17.02;;;15.32;;
47713;SDS011;33475;46.614;13.888;2022-10-15T14:20:53;18.13;;;16.05;;
47713;SDS011;33475;46.614;13.888;2022-10-15T14:23:21;17.35;;;15.65;;
47713;SDS011;33475;46.614;13.888;2022-10-15T14:25:51;20.55;;;16.27;;
47713;SDS011;33475;46.614;13.888;2022-10-15T14:28:18;21.60;;;16.95;;
47713;SDS011;33475;46.614;13.888;2022-10-15T14:30:45;23.42;;;16.05;;
47713;SDS011;33475;46.614;13.888;2022-10-15T14:36:06;19.02;;;16.75;;
47713;SDS011;33475;46.614;13.888;2022-10-15T14:38:33;23.25;;;17.42;;
47713;SDS011;33475;46.614;13.888;2022-10-15T14:41:01;19.98;;;15.98;;
47713;SDS011;33475;46.614;13.888;2022-10-15T14:43:32;25.63;;;17.25;;
47713;SDS011;33475;46.614;13.888;2022-10-15T14:46:00;22.17;;;18.08;;
47713;SDS011;33475;46.614;13.888;2022-10-15T14:48:36;20.15;;;18.02;;
47713;SDS011;33475;46.614;13.888;2022-10-15T14:51:06;22.98;;;17.77;;
47713;SDS011;33475;46.614;13.888;2022-10-15T14:53:36;18.60;;;16.60;;
47713;SDS011;33475;46.614;13.888;2022-10-15T14:56:23;27.40;;;16.83;;
47713;SDS011;33475;46.614;13.888;2022-10-15T14:58:53;21.02;;;16.60;;
47713;SDS011;33475;46.614;13.888;2022-10-15T15:01:21;19.10;;;17.10;;
47713;SDS011;33475;46.614;13.888;2022-10-15T15:03:48;19.50;;;16.15;;
47713;SDS011;33475;46.614;13.888;2022-10-15T15:06:15;18.77;;;16.83;;
47713;SDS011;33475;46.614;13.888;2022-10-15T15:08:41;19.90;;;15.77;;
47713;SDS011;33475;46.614;13.888;2022-10-15T15:11:09;21.60;;;16.52;;
47713;SDS011;33475;46.614;13.888;2022-10-15T15:13:40;19.90;;;17.52;;
47713;SDS011;33475;46.614;13.888;2022-10-15T15:16:13;17.85;;;15.57;;
47713;SDS011;33475;46.614;13.888;2022-10-15T15:18:40;17.43;;;15.43;;
47713;SDS011;33475;46.614;13.888;2022-10-15T15:21:09;24.15;;;17.52;;
47713;SDS011;33475;46.614;13.888;2022-10-15T15:23:36;24.83;;;17.48;;
47713;SDS011;33475;46.614;13.888;2022-10-15T15:26:02;18.60;;;16.67;;
47713;SDS011;33475;46.614;13.888;2022-10-15T15:28:28;20.30;;;17.20;;
47713;SDS011;33475;46.614;13.888;2022-10-15T15:30:58;21.17;;;18.83;;
47713;SDS011;33475;46.614;13.888;2022-10-15T15:33:25;21.10;;;17.70;;
47713;SDS011;33475;46.614;13.888;2022-10-15T15:35:53;24.08;;;18.52;;
47713;SDS011;33475;46.614;13.888;2022-10-15T15:38:21;31.50;;;19.92;;
47713;SDS011;33475;46.614;13.888;2022-10-15T15:40:47;25.50;;;19.33;;
47713;SDS011;33475;46.614;13.888;2022-10-15T15:43:15;22.23;;;19.67;;
47713;SDS011;33475;46.614;13.888;2022-10-15T15:45:42;22.10;;;18.65;;
47713;SDS011;33475;46.614;13.888;2022-10-15T15:48:09;23.65;;;20.45;;
47713;SDS011;33475;46.614;13.888;2022-10-15T15:50:35;26.48;;;20.88;;
47713;SDS011;33475;46.614;13.888;2022-10-15T15:53:01;23.50;;;20.10;;
47713;SDS011;33475;46.614;13.888;2022-10-15T15:55:27;23.05;;;20.42;;
47713;SDS011;33475;46.614;13.888;2022-10-15T15:57:53;24.67;;;20.25;;
47713;SDS011;33475;46.614;13.888;2022-10-15T16:00:20;30.25;;;23.48;;
47713;SDS011;33475;46.614;13.888;2022-10-15T16:02:46;27.67;;;21.60;;
47713;SDS011;33475;46.614;13.888;2022-10-15T16:05:13;21.88;;;19.63;;